Time;durP1;ratioP1;P1;durP2;ratioP2;P2;SDS_P1;SDS_P2;PMS_P1;PMS_P2;Temp;Humidity;BMP_temperature;BMP_pressure;BME280_temperature;BME280_humidity;BME280_pressure;Samples;Min_cycle;Max_cycle;Signal;HPM_P1;HPM_P2
2021/12/13 00:01:23;;;;;;;9.35;3.80;;;;;;;-1.50;83.66;99261.53;4485643;31;20429;-72
2021/12/13 00:04:06;;;;;;;6.80;4.18;;;;;;;-1.57;83.88;99260.09;4485656;31;20088;-72
2021/12/13 00:06:45;;;;;;;11.05;4.65;;;;;;;-1.62;84.36;99266.19;4485554;31;20096;-72
2021/12/13 00:09:19;;;;;;;6.12;3.35;;;;;;;-1.65;84.57;99268.87;4485551;31;20084;-72
2021/12/13 00:11:51;;;;;;;11.15;4.28;;;;;;;-1.66;84.54;99274.06;4485521;31;20083;-72
2021/12/13 00:14:29;;;;;;;11.68;5.18;;;;;;;-1.69;84.69;99254.44;4484367;32;20092;-72
2021/12/13 00:17:02;;;;;;;8.80;3.12;;;;;;;-1.67;84.59;99250.06;4485422;31;20088;-72
2021/12/13 00:19:40;;;;;;;10.60;3.17;;;;;;;-1.66;84.50;99253.50;4485615;32;20543;-72
2021/12/13 00:22:38;;;;;;;11.70;4.37;;;;;;;-1.62;84.20;99249.91;4484132;32;20139;-72
2021/12/13 00:25:14;;;;;;;8.15;4.55;;;;;;;-1.64;84.24;99257.69;4484903;32;20171;-72
2021/12/13 00:27:44;;;;;;;13.00;4.53;;;;;;;-1.64;84.31;99246.56;4485576;31;20576;-72
2021/12/13 00:30:25;;;;;;;9.35;4.45;;;;;;;-1.71;84.78;99256.22;4484063;32;20108;-72
2021/12/13 00:33:25;;;;;;;12.23;5.45;;;;;;;-1.68;84.36;99256.13;4485367;31;20509;-72
2021/12/13 00:36:02;;;;;;;12.35;5.28;;;;;;;-1.74;84.83;99251.19;4484086;32;20122;-72
2021/12/13 00:38:31;;;;;;;15.95;5.12;;;;;;;-1.78;85.05;99259.84;4485600;31;20441;-72
2021/12/13 00:41:04;;;;;;;10.48;4.12;;;;;;;-1.77;85.08;99271.81;4485427;31;20131;-72
2021/12/13 00:43:42;;;;;;;8.90;3.45;;;;;;;-1.84;85.22;99276.28;4485278;31;20107;-72
2021/12/13 00:46:12;;;;;;;8.23;4.37;;;;;;;-1.83;85.42;99262.56;4485458;31;20084;-72
2021/12/13 00:48:43;;;;;;;12.32;4.50;;;;;;;-1.81;85.29;99255.66;4483869;32;20092;-72
2021/12/13 00:51:28;;;;;;;8.25;5.03;;;;;;;-1.86;85.49;99274.63;4485501;31;20096;-72
2021/12/13 00:53:58;;;;;;;13.55;4.05;;;;;;;-1.81;85.36;99283.06;4485162;31;20453;-72
2021/12/13 00:57:09;;;;;;;8.57;4.22;;;;;;;-1.76;84.99;99277.78;4485419;31;20107;-72
2021/12/13 00:59:38;;;;;;;7.43;4.35;;;;;;;-1.75;84.83;99279.47;4483093;32;20100;-72
2021/12/13 01:02:22;;;;;;;7.43;3.00;;;;;;;-1.87;85.44;99280.69;4484984;31;20085;-72
2021/12/13 01:05:01;;;;;;;10.05;4.10;;;;;;;-1.89;85.74;99295.28;4485210;31;20080;-72
2021/12/13 01:07:55;;;;;;;9.15;4.93;;;;;;;-1.82;85.07;99283.94;4485256;32;20133;-72
2021/12/13 01:10:50;;;;;;;7.25;3.60;;;;;;;-1.77;84.85;99279.53;4485173;31;20516;-72
2021/12/13 01:13:33;;;;;;;10.25;3.55;;;;;;;-1.76;84.66;99283.75;4483867;32;20478;-72
2021/12/13 01:16:31;;;;;;;7.00;3.40;;;;;;;-1.74;84.67;99281.12;4485482;31;20075;-72
2021/12/13 01:22:19;;;;;;;9.68;3.20;;;;;;;-1.71;84.18;99287.03;4487135;31;20131;-72
2021/12/13 01:27:48;;;;;;;10.13;3.80;;;;;;;-1.72;84.14;99287.91;4500966;31;20106;-72
2021/12/13 01:30:23;;;;;;;6.18;2.92;;;;;;;-1.70;83.97;99293.00;4485067;31;20693;-72
2021/12/13 01:32:51;;;;;;;;;;;;;;;-1.66;83.78;99290.28;4485275;31;20088;-72
2021/12/13 01:35:24;;;;;;;7.10;3.22;;;;;;;-1.65;83.42;99285.97;4485036;31;19994;-72
2021/12/13 01:37:53;;;;;;;9.98;4.03;;;;;;;-1.58;82.96;99287.47;4485270;31;20077;-72
2021/12/13 01:40:25;;;;;;;4.65;2.20;;;;;;;-1.57;82.84;99278.91;4485012;31;20080;-72
2021/12/13 01:42:59;;;;;;;9.23;4.28;;;;;;;-1.53;82.72;99287.34;4485020;31;20096;-72
2021/12/13 01:45:30;;;;;;;11.30;4.37;;;;;;;-1.53;82.70;99289.91;4484767;31;20213;-72
2021/12/13 01:47:57;;;;;;;8.13;3.72;;;;;;;-1.54;82.60;99299.34;4484940;31;20092;-72
2021/12/13 01:50:36;;;;;;;7.68;4.35;;;;;;;-1.57;82.90;99298.63;4484604;31;20080;-72
2021/12/13 01:53:03;;;;;;;8.85;3.97;;;;;;;-1.54;82.69;99294.22;4484897;31;20119;-72
2021/12/13 01:55:35;;;;;;;7.80;4.05;;;;;;;-1.54;82.68;99301.09;4484627;31;20100;-72
2021/12/13 01:58:19;;;;;;;9.45;4.15;;;;;;;-1.47;82.38;99294.84;4485158;31;20161;-72
2021/12/13 02:03:47;;;;;;;8.13;3.87;;;;;;;-1.66;83.16;99285.16;4494651;31;20100;-72
2021/12/13 02:06:23;;;;;;;7.00;3.62;;;;;;;-1.71;83.43;99276.75;4484685;31;20092;-72
2021/12/13 02:08:54;;;;;;;6.07;3.67;;;;;;;-1.74;83.58;99279.44;4484605;32;20163;-72
2021/12/13 02:11:23;;;;;;;5.60;3.60;;;;;;;-1.81;83.93;99291.59;4484561;32;20080;-72
2021/12/13 02:14:09;;;;;;;10.32;5.28;;;;;;;-1.76;83.86;99278.63;4483834;31;20134;-72
2021/12/13 02:20:02;;;;;;;7.80;3.75;;;;;;;-1.68;83.41;99268.09;4483360;32;20152;-72
2021/12/13 02:22:37;;;;;;;8.85;4.28;;;;;;;-1.69;83.38;99274.97;4457607;32;20097;-72
2021/12/13 02:25:20;;;;;;;9.63;4.85;;;;;;;-1.59;82.80;99287.53;4465965;32;20146;-72
2021/12/13 02:27:55;;;;;;;14.18;5.30;;;;;;;-1.62;82.92;99288.47;4466422;32;20125;-72
2021/12/13 02:30:42;;;;;;;11.07;4.15;;;;;;;-1.70;83.17;99290.44;4450782;32;20502;-72
2021/12/13 02:33:13;;;;;;;13.62;4.85;;;;;;;-1.68;83.22;99286.94;4450886;32;20088;-72
2021/12/13 02:35:45;;;;;;;9.98;5.05;;;;;;;-1.69;83.33;99290.38;4450575;32;20128;-72
2021/12/13 02:38:14;;;;;;;12.57;4.80;;;;;;;-1.73;83.46;99290.53;4450567;32;20133;-72
2021/12/13 02:40:42;;;;;;;7.85;4.28;;;;;;;-1.79;83.78;99304.41;4450741;32;20097;-72
2021/12/13 02:43:11;;;;;;;13.10;4.93;;;;;;;-1.71;83.28;99291.31;4450583;32;20105;-72
2021/12/13 02:45:44;;;;;;;11.07;5.65;;;;;;;-1.68;83.23;99289.50;4450619;32;20104;-72
2021/12/13 02:48:12;;;;;;;8.97;4.77;;;;;;;-1.69;83.46;99289.56;4450773;32;20163;-72
2021/12/13 02:50:51;;;;;;;11.00;4.47;;;;;;;-1.67;83.21;99300.63;4450642;32;20212;-72
2021/12/13 02:53:29;;;;;;;16.80;4.95;;;;;;;-1.66;83.24;99294.59;4450701;32;20110;-72
2021/12/13 02:55:57;;;;;;;10.02;4.47;;;;;;;-1.77;83.67;99292.37;4450798;32;20098;-72
2021/12/13 02:58:29;;;;;;;9.80;4.60;;;;;;;-1.69;83.26;99316.06;4453882;32;20127;-72
2021/12/13 03:01:07;;;;;;;9.73;4.65;;;;;;;-1.73;83.42;99296.50;4484098;31;20076;-72
2021/12/13 03:03:39;;;;;;;9.18;5.00;;;;;;;-1.64;83.11;99298.78;4484102;32;20103;-72
2021/12/13 03:06:11;;;;;;;9.40;4.75;;;;;;;-1.66;83.16;99299.75;4482685;32;20460;-72
2021/12/13 03:08:43;;;;;;;11.75;4.35;;;;;;;-1.67;83.20;99298.88;4484166;31;20962;-72
2021/12/13 03:11:21;;;;;;;9.65;5.03;;;;;;;-1.65;83.08;99303.97;4483826;31;20123;-72
2021/12/13 03:13:55;;;;;;;8.93;4.28;;;;;;;-1.62;83.14;99301.31;4483957;32;20072;-72
2021/12/13 03:16:28;;;;;;;7.97;4.03;;;;;;;-1.64;83.26;99301.34;4483984;31;20120;-72
2021/12/13 03:19:06;;;;;;;12.57;5.20;;;;;;;-1.65;83.22;99296.25;4483929;31;20108;-72
2021/12/13 03:22:14;;;;;;;10.05;4.60;;;;;;;-1.62;83.29;99291.03;4484690;31;20113;-72
2021/12/13 03:25:14;;;;;;;10.10;4.62;;;;;;;-1.71;83.68;99299.03;4499268;31;20435;-72
2021/12/13 03:28:12;;;;;;;12.80;4.65;;;;;;;-1.73;83.98;99288.78;4501317;31;20115;-72
2021/12/13 03:30:55;;;;;;;9.30;5.03;;;;;;;-1.74;84.06;99292.28;4484891;32;20092;-72
2021/12/13 03:33:31;;;;;;;15.73;5.43;;;;;;;-1.64;83.54;99280.81;4486489;31;20072;-72
2021/12/13 03:36:05;;;;;;;8.73;4.18;;;;;;;-1.65;83.53;99281.72;4485883;31;20111;-72
2021/12/13 03:38:38;;;;;;;7.18;4.03;;;;;;;-1.58;83.36;99284.09;4486285;31;20107;-72
2021/12/13 03:41:13;;;;;;;9.77;4.28;;;;;;;-1.56;83.13;99300.28;4485957;31;20474;-72
2021/12/13 03:43:47;;;;;;;10.30;4.50;;;;;;;-1.47;82.94;99294.84;4486159;31;20084;-72
2021/12/13 03:46:17;;;;;;;13.60;6.03;;;;;;;-1.57;83.47;99296.06;4485928;32;20095;-72
2021/12/13 03:48:45;;;;;;;8.82;4.65;;;;;;;-1.56;83.47;99297.72;4485884;31;20096;-72
2021/12/13 03:51:18;;;;;;;11.48;4.75;;;;;;;-1.56;83.76;99302.84;4485459;31;20126;-72
2021/12/13 03:53:49;;;;;;;8.88;4.80;;;;;;;-1.63;84.11;99308.19;4486169;31;20118;-72
2021/12/13 03:56:19;;;;;;;10.20;5.43;;;;;;;-1.64;84.37;99303.91;4485889;31;20076;-72
2021/12/13 03:58:50;;;;;;;12.07;5.85;;;;;;;-1.75;85.07;99306.00;4485942;31;20204;-72
2021/12/13 04:01:26;;;;;;;11.20;5.95;;;;;;;-1.86;85.85;99302.88;4485974;31;20084;-72
2021/12/13 04:03:57;;;;;;;13.62;5.87;;;;;;;-1.88;86.15;99300.37;4485760;31;20194;-72
2021/12/13 04:06:24;;;;;;;10.68;5.55;;;;;;;-1.96;86.55;99298.03;4485969;31;20065;-72
2021/12/13 04:08:56;;;;;;;14.68;5.62;;;;;;;-1.99;86.81;99315.25;4485968;31;20124;-72
2021/12/13 04:11:25;;;;;;;10.52;4.37;;;;;;;-1.96;86.92;99303.16;4485700;31;20191;-72
2021/12/13 04:14:04;;;;;;;12.65;5.75;;;;;;;-1.89;86.69;99308.97;4485623;31;20441;-72
2021/12/13 04:16:47;;;;;;;12.30;6.05;;;;;;;-1.93;87.01;99307.37;4485571;31;20471;-72
2021/12/13 04:19:21;;;;;;;14.20;5.90;;;;;;;-1.99;87.57;99316.09;4485704;31;20526;-72
2021/12/13 04:21:55;;;;;;;14.23;5.18;;;;;;;-1.99;87.96;99312.69;4488329;31;20148;-72
2021/12/13 04:24:28;;;;;;;9.57;4.95;;;;;;;-2.05;88.33;99318.00;4501244;31;20437;-72
2021/12/13 04:27:00;;;;;;;15.15;5.05;;;;;;;-2.00;88.32;99317.00;4499900;31;20092;-72
2021/12/13 04:29:35;;;;;;;12.32;4.95;;;;;;;-1.99;88.42;99316.09;4490509;31;20088;-72
2021/12/13 04:32:17;;;;;;;18.48;6.18;;;;;;;-2.05;88.58;99326.53;4485558;31;20109;-72
2021/12/13 04:34:45;;;;;;;12.45;5.60;;;;;;;-2.08;88.79;99318.94;4485485;31;20110;-72
2021/12/13 04:37:16;;;;;;;12.35;5.55;;;;;;;-2.06;88.70;99316.31;4484864;31;20096;-72
2021/12/13 04:39:45;;;;;;;12.82;4.53;;;;;;;-2.11;89.18;99318.19;4485789;31;20080;-72
2021/12/13 04:42:16;;;;;;;13.93;6.68;;;;;;;-2.10;89.30;99320.72;4485241;31;20135;-72
2021/12/13 04:44:46;;;;;;;10.75;4.95;;;;;;;-2.10;89.33;99313.00;4485475;31;20134;-72
2021/12/13 04:47:16;;;;;;;10.50;4.45;;;;;;;-2.10;89.44;99318.16;4485497;31;20084;-72
2021/12/13 04:49:49;;;;;;;11.45;5.85;;;;;;;-2.02;89.36;99321.31;4485346;32;20506;-72
2021/12/13 04:52:19;;;;;;;11.02;4.50;;;;;;;-2.08;89.56;99324.06;4484120;32;20108;-72
2021/12/13 04:54:51;;;;;;;16.30;7.30;;;;;;;-2.11;89.87;99319.00;4485348;31;20123;-72
2021/12/13 04:57:19;;;;;;;14.65;5.85;;;;;;;-2.16;90.20;99313.19;4485245;32;20084;-72
2021/12/13 04:59:53;;;;;;;14.00;6.40;;;;;;;-2.26;90.83;99315.16;4493672;31;20118;-72
2021/12/13 05:02:21;;;;;;;10.75;5.12;;;;;;;-2.19;90.82;99319.25;4500320;31;20153;-72
2021/12/13 05:04:56;;;;;;;14.18;6.35;;;;;;;-2.15;90.80;99328.53;4499194;31;20117;-72
2021/12/13 05:07:26;;;;;;;20.95;6.53;;;;;;;-2.20;91.27;99319.28;4500487;31;20511;-72
2021/12/13 05:09:53;;;;;;;15.50;6.07;;;;;;;-2.18;91.54;99322.63;4492841;31;20119;-72
2021/12/13 05:12:25;;;;;;;14.05;5.97;;;;;;;-2.19;92.30;99331.25;4484322;32;20093;-72
2021/12/13 05:15:06;;;;;;;17.50;7.30;;;;;;;-2.09;92.21;99332.66;4487211;31;20851;-72
2021/12/13 05:17:45;;;;;;;18.05;7.03;;;;;;;-2.12;92.60;99334.47;4500924;31;20457;-72
2021/12/13 05:20:21;;;;;;;18.08;6.12;;;;;;;-2.11;92.58;99342.12;4499587;31;20130;-72
2021/12/13 05:22:48;;;;;;;16.95;6.97;;;;;;;-2.06;92.29;99342.00;4491569;31;20126;-72
2021/12/13 05:25:34;;;;;;;21.00;7.65;;;;;;;-2.01;92.05;99346.13;4496748;31;20497;-72
2021/12/13 05:28:08;;;;;;;12.32;5.85;;;;;;;-1.92;91.58;99351.84;4497926;31;20088;-72
2021/12/13 05:31:01;;;;;;;10.00;4.80;;;;;;;-1.93;91.67;99348.47;4500784;31;20167;-72
2021/12/13 05:33:32;;;;;;;18.60;7.47;;;;;;;-1.91;91.60;99354.38;4500140;31;20091;-72
2021/12/13 05:36:03;;;;;;;19.20;7.78;;;;;;;-1.89;91.48;99352.63;4500941;31;20080;-72
2021/12/13 05:38:38;;;;;;;17.92;7.53;;;;;;;-1.86;91.59;99357.69;4500326;31;20555;-72
2021/12/13 05:41:09;;;;;;;16.23;6.15;;;;;;;-1.87;91.75;99361.13;4499341;31;20111;-72
2021/12/13 05:43:39;;;;;;;11.63;5.68;;;;;;;-1.83;91.32;99355.03;4498003;31;20112;-72
2021/12/13 05:46:11;;;;;;;16.48;5.47;;;;;;;-1.84;91.76;99358.47;4491529;31;20112;-72
2021/12/13 05:48:43;;;;;;;18.05;7.10;;;;;;;-1.72;91.42;99361.56;4486606;31;20092;-72
2021/12/13 05:51:35;;;;;;;18.00;7.28;;;;;;;-1.70;91.25;99355.47;4491315;31;20164;-72
2021/12/13 05:54:17;;;;;;;12.52;6.32;;;;;;;-1.75;91.75;99366.81;4499910;31;20430;-72
2021/12/13 05:56:48;;;;;;;14.15;6.03;;;;;;;-1.66;91.41;99372.50;4500052;31;20120;-72
2021/12/13 05:59:19;;;;;;;14.98;7.53;;;;;;;-1.66;91.67;99367.34;4499716;31;20095;-72
2021/12/13 06:01:56;;;;;;;15.88;7.45;;;;;;;-1.65;91.63;99371.62;4499593;31;20131;-72
2021/12/13 06:04:31;;;;;;;17.25;7.18;;;;;;;-1.76;92.19;99359.97;4500296;31;20092;-72
2021/12/13 06:06:59;;;;;;;14.27;6.10;;;;;;;-1.79;92.41;99371.16;4498918;31;20091;-72
2021/12/13 06:09:43;;;;;;;14.48;6.47;;;;;;;-1.73;92.32;99365.00;4500262;31;20091;-72
2021/12/13 06:12:14;;;;;;;14.90;5.90;;;;;;;-1.73;92.17;99370.97;4499904;31;20096;-72
2021/12/13 06:14:41;;;;;;;18.27;7.30;;;;;;;-1.69;92.13;99374.31;4500039;31;20148;-72
2021/12/13 06:17:19;;;;;;;16.30;7.68;;;;;;;-1.71;92.12;99374.38;4499895;31;20100;-72
2021/12/13 06:19:57;;;;;;;21.10;8.15;;;;;;;-1.71;92.12;99383.78;4499727;31;20083;-72
2021/12/13 06:22:28;;;;;;;15.48;6.37;;;;;;;-1.68;91.73;99379.41;4498328;31;20096;-72
2021/12/13 06:24:57;;;;;;;15.00;6.45;;;;;;;-1.65;91.61;99388.75;4498598;31;20464;-72
2021/12/13 06:27:33;;;;;;;12.90;6.82;;;;;;;-1.58;91.14;99400.53;4498162;31;20100;-72
2021/12/13 06:30:05;;;;;;;17.75;7.78;;;;;;;-1.58;91.37;99402.25;4496382;31;20083;-72
2021/12/13 06:32:59;;;;;;;17.17;7.90;;;;;;;-1.59;91.38;99391.13;4497631;31;20096;-72
2021/12/13 06:35:45;;;;;;;9.15;4.80;;;;;;;-1.54;91.46;99391.03;4498010;31;20149;-72
2021/12/13 06:38:45;;;;;;;16.65;7.30;;;;;;;-1.57;92.15;99393.69;4499477;31;20087;-73
2021/12/13 06:41:31;;;;;;;12.75;6.45;;;;;;;-1.57;92.56;99398.81;4498728;31;20445;-71
2021/12/13 06:44:00;;;;;;;19.45;8.82;;;;;;;-1.53;92.50;99398.69;4499710;31;20214;-72
2021/12/13 06:46:36;;;;;;;21.52;8.15;;;;;;;-1.51;92.69;99398.63;4498897;31;20092;-73
2021/12/13 06:49:44;;;;;;;15.77;6.40;;;;;;;-1.54;93.18;99411.56;4499063;31;20127;-73
2021/12/13 06:52:11;;;;;;;19.67;7.80;;;;;;;-1.44;93.09;99412.97;4427564;32;20117;-71
2021/12/13 06:54:55;;;;;;;24.23;9.13;;;;;;;-1.45;93.31;99412.13;4432626;32;20525;-71
2021/12/13 06:57:41;;;;;;;20.67;7.95;;;;;;;-1.46;93.86;99410.44;4424580;32;20125;-72
2021/12/13 07:00:21;;;;;;;17.83;7.47;;;;;;;-1.40;93.90;99408.59;4433033;32;20258;-71
2021/12/13 07:02:54;;;;;;;21.92;8.88;;;;;;;-1.28;93.31;99403.06;4437083;32;20162;-72
2021/12/13 07:05:29;;;;;;;15.73;7.95;;;;;;;-1.25;93.20;99408.13;4435500;32;20139;-72
2021/12/13 07:08:23;;;;;;;19.50;8.98;;;;;;;-1.15;93.15;99409.53;4433553;32;20112;-72
2021/12/13 07:10:55;;;;;;;15.20;7.20;;;;;;;-1.18;93.15;99406.19;4425619;32;20832;-72
2021/12/13 07:13:27;;;;;;;20.25;7.55;;;;;;;-1.08;92.83;99416.13;4434411;32;20188;-73
2021/12/13 07:16:00;;;;;;;18.77;8.30;;;;;;;-1.00;92.56;99413.34;4436168;32;20160;-72
2021/12/13 07:18:39;;;;;;;21.02;8.98;;;;;;;-0.83;91.58;99414.50;4435843;32;20128;-72
2021/12/13 07:21:13;;;;;;;17.35;8.52;;;;;;;-0.81;91.35;99420.47;4427456;32;20139;-72
2021/12/13 07:24:02;;;;;;;;;;;;;;;-0.72;91.04;99423.56;4432278;32;20131;-73
2021/12/13 07:26:32;;;;;;;21.35;8.30;;;;;;;-0.84;91.50;99423.16;4469170;31;19980;-72
2021/12/13 07:29:02;;;;;;;16.80;7.15;;;;;;;-0.74;91.23;99427.94;4500767;31;20124;-72
2021/12/13 07:31:29;;;;;;;18.58;7.40;;;;;;;-0.58;90.53;99423.13;4501147;31;20578;-72
2021/12/13 07:34:09;;;;;;;14.50;6.90;;;;;;;-0.58;90.17;99430.84;4501475;31;20095;-72
2021/12/13 07:36:36;;;;;;;14.23;7.30;;;;;;;-0.50;89.96;99427.19;4492097;31;20104;-72
2021/12/13 07:39:14;;;;;;;22.02;9.23;;;;;;;-0.41;89.64;99425.16;4501325;31;20096;-72
2021/12/13 07:41:49;;;;;;;13.45;6.07;;;;;;;-0.33;89.51;99435.19;4501325;31;20111;-72
2021/12/13 07:44:30;;;;;;;19.62;7.10;;;;;;;-0.21;88.05;99441.66;4501245;31;20122;-72
2021/12/13 07:47:05;;;;;;;20.65;7.93;;;;;;;-0.25;88.01;99440.06;4493066;31;20095;-72
2021/12/13 07:49:44;;;;;;;18.67;7.85;;;;;;;-0.23;88.22;99446.84;4501194;31;20092;-72
2021/12/13 07:52:41;;;;;;;18.17;8.73;;;;;;;-0.16;88.02;99442.31;4488412;31;20124;-72
2021/12/13 07:55:22;;;;;;;20.23;7.75;;;;;;;-0.17;88.44;99445.78;4435361;32;20558;-72
2021/12/13 07:57:49;;;;;;;16.85;8.07;;;;;;;-0.12;88.58;99451.63;4435766;32;20109;-72
2021/12/13 08:00:38;;;;;;;20.83;7.40;;;;;;;-0.19;88.82;99453.56;4434898;32;20125;-72
2021/12/13 08:03:11;;;;;;;19.95;8.02;;;;;;;-0.19;88.82;99456.12;4435224;32;20206;-72
2021/12/13 08:05:51;;;;;;;28.70;7.62;;;;;;;-0.07;88.83;99447.16;4435036;32;20470;-72
2021/12/13 08:08:23;;;;;;;15.27;6.70;;;;;;;-0.01;88.05;99462.41;4436010;32;20113;-72
2021/12/13 08:10:55;;;;;;;16.92;8.23;;;;;;;-0.01;87.93;99464.97;4435596;32;20179;-73
2021/12/13 08:13:26;;;;;;;19.17;8.27;;;;;;;0.02;87.81;99470.94;4432568;32;20525;-72
2021/12/13 08:16:00;;;;;;;18.77;7.62;;;;;;;-0.02;87.34;99450.41;4430853;32;20270;-72
2021/12/13 08:18:27;;;;;;;16.55;7.45;;;;;;;0.06;86.78;99459.59;4432489;32;20194;-72
2021/12/13 08:21:01;;;;;;;11.68;5.18;;;;;;;0.06;86.68;99459.59;4435399;32;20655;-71
2021/12/13 08:23:48;;;;;;;15.93;7.15;;;;;;;0.28;85.11;99462.28;4434726;32;20255;-71
2021/12/13 08:26:23;;;;;;;18.25;7.97;;;;;;;0.16;85.68;99468.69;4431645;32;20477;-71
2021/12/13 08:28:53;;;;;;;22.45;9.52;;;;;;;0.31;85.36;99467.31;4435637;32;20353;-72
2021/12/13 08:31:21;;;;;;;20.35;8.52;;;;;;;0.38;85.40;99473.94;4459817;31;20161;-72
2021/12/13 08:33:56;;;;;;;18.58;7.60;;;;;;;0.35;85.34;99469.72;4499790;31;20437;-73
2021/12/13 08:36:24;;;;;;;18.58;9.05;;;;;;;0.48;85.12;99479.59;4500562;31;20521;-74
2021/12/13 08:39:05;;;;;;;20.37;9.40;;;;;;;0.46;85.08;99478.81;4500420;31;20127;-73
2021/12/13 08:41:43;;;;;;;16.62;8.38;;;;;;;0.45;85.53;99485.69;4500028;31;20152;-73
2021/12/13 08:44:10;;;;;;;15.45;7.22;;;;;;;0.58;84.51;99477.53;4501067;31;20465;-73
2021/12/13 08:46:57;;;;;;;17.05;7.00;;;;;;;0.60;84.22;99486.03;4500313;31;20118;-73
2021/12/13 08:49:25;;;;;;;19.55;8.23;;;;;;;0.80;83.76;99487.88;4499250;31;20207;-73
2021/12/13 08:52:21;;;;;;;19.40;9.75;;;;;;;0.79;83.53;99496.50;4499298;31;20096;-73
2021/12/13 08:55:31;;;;;;;17.62;9.15;;;;;;;0.65;84.19;99491.84;4430820;32;20090;-74
2021/12/13 08:57:58;;;;;;;19.55;8.52;;;;;;;0.76;83.48;99479.41;4374008;32;20185;-73
2021/12/13 09:00:30;;;;;;;18.33;8.30;;;;;;;0.85;83.28;99485.97;4373911;32;20114;-73
2021/12/13 09:03:10;;;;;;;15.77;7.82;;;;;;;0.93;82.53;99496.00;4374108;32;20129;-74
2021/12/13 09:05:47;;;;;;;17.60;7.65;;;;;;;0.98;82.17;99489.75;4373650;32;20149;-73
2021/12/13 09:08:15;;;;;;;21.73;7.95;;;;;;;0.94;82.22;99493.34;4361701;32;20629;-73
2021/12/13 09:10:52;;;;;;;15.73;7.47;;;;;;;1.16;81.16;99479.62;4370525;32;20759;-74
2021/12/13 09:13:39;;;;;;;18.92;7.78;;;;;;;1.26;80.36;99478.38;4362098;32;20149;-74
2021/12/13 09:16:09;;;;;;;18.02;8.23;;;;;;;1.23;80.26;99487.06;4373729;32;20126;-73
2021/12/13 09:18:38;;;;;;;16.20;6.75;;;;;;;1.37;80.21;99485.69;4374918;32;20156;-75
2021/12/13 09:21:07;;;;;;;18.75;7.90;;;;;;;1.38;79.15;99483.03;4361690;32;20555;-75
2021/12/13 09:23:45;;;;;;;16.98;7.50;;;;;;;1.46;79.60;99479.31;4373776;32;20421;-74
2021/12/13 09:26:19;;;;;;;16.98;6.93;;;;;;;1.44;79.34;99487.12;4374191;32;20119;-74
2021/12/13 09:28:58;;;;;;;17.95;7.75;;;;;;;1.44;79.04;99488.84;4405575;32;20131;-74
2021/12/13 09:31:37;;;;;;;13.35;6.57;;;;;;;1.64;78.62;99500.97;4450802;32;20108;-74
2021/12/13 09:34:16;;;;;;;16.05;8.35;;;;;;;1.74;77.90;99490.19;4482478;31;20084;-74
2021/12/13 09:36:46;;;;;;;24.50;8.32;;;;;;;1.68;78.39;99485.28;4488356;31;20096;-75
2021/12/13 09:39:17;;;;;;;20.73;8.70;;;;;;;1.66;78.69;99481.06;4498999;31;20088;-75
2021/12/13 09:41:46;;;;;;;15.15;7.70;;;;;;;1.71;79.87;99474.81;4487527;31;20101;-75
2021/12/13 09:44:29;;;;;;;22.03;8.47;;;;;;;1.69;78.55;99474.03;4494686;31;20092;-75
2021/12/13 09:47:03;;;;;;;14.90;7.20;;;;;;;1.73;79.45;99478.16;4498616;31;20092;-75
2021/12/13 09:49:33;;;;;;;19.50;8.55;;;;;;;1.66;79.03;99481.91;4494024;31;164104;-74
2021/12/13 09:52:25;;;;;;;15.73;7.40;;;;;;;1.82;79.53;99474.38;4498258;31;20483;-74
2021/12/13 09:55:01;;;;;;;17.77;8.32;;;;;;;1.68;78.35;99476.69;4497877;31;20126;-74
2021/12/13 09:57:40;;;;;;;16.77;7.57;;;;;;;1.77;78.85;99476.28;4494604;31;20148;-74
2021/12/13 10:00:30;;;;;;;17.33;7.07;;;;;;;1.99;77.93;99470.25;4498012;31;20092;-74
2021/12/13 10:03:02;;;;;;;17.37;8.45;;;;;;;2.02;77.27;99464.94;4496753;31;20138;-75
2021/12/13 10:05:34;;;;;;;18.20;8.40;;;;;;;1.99;77.70;99462.50;4496654;31;20559;-74
2021/12/13 10:08:06;;;;;;;15.60;7.20;;;;;;;2.06;77.11;99459.56;4488037;31;20150;-74
2021/12/13 10:10:42;;;;;;;17.20;7.75;;;;;;;2.02;77.58;99465.78;4493966;31;20097;-73
2021/12/13 10:13:17;;;;;;;16.10;6.70;;;;;;;2.01;76.75;99464.06;4496667;31;20194;-74
2021/12/13 10:15:56;;;;;;;14.82;6.95;;;;;;;1.78;78.56;99459.91;4494668;31;20177;-74
2021/12/13 10:18:27;;;;;;;19.60;8.15;;;;;;;1.95;78.02;99457.44;4495933;31;20114;-74
2021/12/13 10:21:17;;;;;;;20.20;8.98;;;;;;;2.02;77.94;99460.59;4496107;31;20095;-74
2021/12/13 10:23:54;;;;;;;18.37;6.82;;;;;;;2.03;77.35;99464.00;4446658;32;20638;-74
2021/12/13 10:26:28;;;;;;;21.37;8.63;;;;;;;1.97;76.95;99469.44;4440648;32;20128;-75
2021/12/13 10:28:57;;;;;;;20.88;8.60;;;;;;;2.03;77.85;99461.44;4444482;32;20532;-75
2021/12/13 10:31:50;;;;;;;18.23;8.43;;;;;;;1.91;77.88;99457.66;4437137;32;20092;-74
2021/12/13 10:34:22;;;;;;;19.98;8.65;;;;;;;1.95;78.60;99467.78;4444156;32;20113;-74
2021/12/13 10:36:53;;;;;;;19.33;8.27;;;;;;;1.84;78.34;99459.63;4439778;32;20101;-75
2021/12/13 10:39:27;;;;;;;14.60;7.15;;;;;;;2.06;77.57;99458.72;4445353;32;20578;-73
2021/12/13 10:42:30;;;;;;;19.40;7.90;;;;;;;2.22;76.11;99464.91;4445203;32;20591;-74
2021/12/13 10:45:00;;;;;;;19.73;7.65;;;;;;;2.36;75.25;99455.69;4444154;32;20124;-75
2021/12/13 10:47:37;;;;;;;16.70;7.87;;;;;;;2.40;75.28;99449.50;4434948;32;20117;-75
2021/12/13 10:50:11;;;;;;;16.30;7.15;;;;;;;2.59;74.49;99447.75;4436322;32;20184;-75
2021/12/13 10:52:42;;;;;;;16.87;7.12;;;;;;;2.51;73.69;99449.84;4438505;32;20101;-75
2021/12/13 10:55:18;;;;;;;22.83;7.93;;;;;;;2.34;74.79;99442.00;4451421;32;20109;-75
2021/12/13 10:57:48;;;;;;;19.25;7.53;;;;;;;2.23;76.63;99439.91;4439428;32;20088;-75
2021/12/13 11:00:15;;;;;;;19.42;8.60;;;;;;;2.17;76.64;99443.59;4463041;31;20100;-74
2021/12/13 11:02:43;;;;;;;22.73;9.60;;;;;;;2.24;77.88;99447.59;4499703;31;20615;-74
2021/12/13 11:05:18;;;;;;;21.35;8.77;;;;;;;2.22;78.52;99443.38;4498756;31;20115;-74
2021/12/13 11:07:48;;;;;;;18.52;8.77;;;;;;;2.26;78.15;99439.78;4501152;31;20096;-74
2021/12/13 11:10:21;;;;;;;22.87;9.23;;;;;;;2.27;77.88;99447.47;4497046;31;20122;-73
2021/12/13 11:12:58;;;;;;;21.25;9.73;;;;;;;2.31;79.34;99438.63;4483488;32;20114;-73
2021/12/13 11:15:30;;;;;;;21.25;9.85;;;;;;;2.46;78.18;99434.53;4485015;31;20563;-73
2021/12/13 11:17:58;;;;;;;17.67;8.40;;;;;;;2.45;79.07;99434.59;4491621;31;20104;-74
2021/12/13 11:20:32;;;;;;;14.52;7.05;;;;;;;2.38;78.23;99431.47;4501694;31;20103;-74
2021/12/13 11:23:00;;;;;;;;;;;;;;;2.40;76.55;99427.03;4501163;31;20088;-74
2021/12/13 11:25:42;;;;;;;20.90;8.63;;;;;;;2.39;77.92;99430.56;4500382;31;19980;-74
2021/12/13 11:28:12;;;;;;;20.02;9.23;;;;;;;2.42;77.47;99430.44;4500093;31;20104;-73
2021/12/13 11:30:45;;;;;;;17.42;7.75;;;;;;;2.46;77.59;99429.34;4499627;31;20118;-73
2021/12/13 11:33:38;;;;;;;18.60;8.75;;;;;;;2.48;77.62;99439.63;4497331;31;20135;-74
2021/12/13 11:36:10;;;;;;;16.87;7.65;;;;;;;2.55;78.49;99435.03;4499020;31;20103;-72
2021/12/13 11:39:02;;;;;;;18.35;7.90;;;;;;;2.64;76.73;99439.78;4497280;31;20092;-73
2021/12/13 11:41:44;;;;;;;20.23;8.68;;;;;;;2.69;76.51;99437.81;4496641;31;20536;-73
2021/12/13 11:44:35;;;;;;;15.32;7.28;;;;;;;2.82;76.74;99440.69;4501022;31;20111;-73
2021/12/13 11:47:32;;;;;;;12.70;6.50;;;;;;;2.74;74.34;99435.00;4499617;31;20092;-73
2021/12/13 11:50:23;;;;;;;15.23;7.82;;;;;;;2.81;75.36;99447.59;4492384;31;20548;-73
2021/12/13 11:53:08;;;;;;;18.00;9.20;;;;;;;2.89;74.06;99446.41;4500056;31;20433;-73
2021/12/13 11:56:03;;;;;;;18.80;7.68;;;;;;;2.88;75.71;99443.00;4499534;31;20108;-74
2021/12/13 11:58:36;;;;;;;15.30;7.82;;;;;;;2.85;73.92;99443.13;4496822;31;20099;-74
2021/12/13 12:01:06;;;;;;;20.37;9.13;;;;;;;2.87;75.28;99435.28;4499905;31;20534;-73
2021/12/13 12:03:53;;;;;;;22.13;9.05;;;;;;;2.95;76.27;99435.75;4499519;31;20092;-73
2021/12/13 12:07:02;;;;;;;21.30;9.18;;;;;;;2.90;74.49;99432.56;4499252;31;20149;-73
2021/12/13 12:10:03;;;;;;;19.42;8.60;;;;;;;3.13;75.18;99428.87;4497744;31;20133;-73
2021/12/13 12:13:11;;;;;;;22.23;9.05;;;;;;;3.01;75.00;99431.16;4491095;31;20510;-73
2021/12/13 12:15:40;;;;;;;13.30;6.70;;;;;;;3.08;75.51;99428.25;4437466;32;20124;-73
2021/12/13 12:18:14;;;;;;;19.55;8.15;;;;;;;3.01;74.93;99419.94;4436622;32;20498;-73
2021/12/13 12:20:48;;;;;;;20.05;8.73;;;;;;;3.02;75.06;99432.81;4450401;32;20451;-73
2021/12/13 12:23:33;;;;;;;30.00;8.98;;;;;;;2.74;75.56;99435.88;4443346;32;20101;-73
2021/12/13 12:26:02;;;;;;;21.60;9.68;;;;;;;2.76;77.00;99434.03;4451003;32;20117;-73